Time;durP1;ratioP1;P1;durP2;ratioP2;P2;SDS_P1;SDS_P2;PMS_P1;PMS_P2;Temp;Humidity;BMP_temperature;BMP_pressure;BME280_temperature;BME280_humidity;BME280_pressure;Samples;Min_cycle;Max_cycle;Signal;HPM_P1;HPM_P2
2023/05/29 00:01:55;;;;;;;4.70;3.13;;;15.60;99.90;;;;;;4194122;28;20225;-77
2023/05/29 00:03:57;;;;;;;5.70;3.27;;;15.60;99.90;;;;;;4195627;28;20322;-77
2023/05/29 00:06:00;;;;;;;4.30;2.93;;;15.50;99.90;;;;;;4195071;28;20213;-77
2023/05/29 00:08:02;;;;;;;5.50;3.00;;;15.50;99.90;;;;;;4194739;28;20209;-77
2023/05/29 00:10:05;;;;;;;5.77;2.90;;;15.50;99.90;;;;;;4192219;28;20361;-78
2023/05/29 00:12:07;;;;;;;5.80;3.00;;;15.40;99.90;;;;;;4195453;28;20644;-77
2023/05/29 00:14:12;;;;;;;7.23;3.53;;;15.40;99.90;;;;;;4193280;28;20218;-75
2023/05/29 00:16:14;;;;;;;7.27;3.13;;;15.40;99.90;;;;;;4193777;28;20228;-75
2023/05/29 00:18:18;;;;;;;6.50;2.90;;;15.40;99.90;;;;;;4194400;28;20205;-75
2023/05/29 00:20:20;;;;;;;3.77;2.60;;;15.30;99.90;;;;;;4193960;28;20316;-75
2023/05/29 00:22:22;;;;;;;7.77;2.90;;;15.30;99.90;;;;;;4195072;28;20874;-76
2023/05/29 00:24:24;;;;;;;5.50;3.10;;;15.30;99.90;;;;;;4192205;28;20244;-77
2023/05/29 00:26:26;;;;;;;3.80;2.63;;;15.20;99.90;;;;;;4195019;28;20674;-76
2023/05/29 00:28:28;;;;;;;5.07;3.23;;;15.20;99.90;;;;;;4193990;28;20208;-77
2023/05/29 00:30:30;;;;;;;5.50;2.80;;;15.20;99.90;;;;;;4191663;28;20264;-76
2023/05/29 00:32:32;;;;;;;7.40;2.90;;;15.10;99.90;;;;;;4192189;28;20255;-76
2023/05/29 00:34:35;;;;;;;5.57;2.63;;;15.10;99.90;;;;;;4194873;28;20255;-76
2023/05/29 00:36:38;;;;;;;7.40;3.17;;;15.10;99.90;;;;;;4192431;28;20219;-77
2023/05/29 00:38:40;;;;;;;4.50;2.50;;;15.00;99.90;;;;;;4192457;28;20214;-77
2023/05/29 00:40:42;;;;;;;6.83;3.03;;;15.00;99.90;;;;;;4193615;28;20351;-77
2023/05/29 00:42:43;;;;;;;4.20;2.47;;;15.00;99.90;;;;;;4194274;28;20249;-77
2023/05/29 00:44:46;;;;;;;3.93;2.60;;;14.90;99.90;;;;;;4193273;28;20215;-77
2023/05/29 00:46:49;;;;;;;5.13;2.83;;;14.90;99.90;;;;;;4192432;28;20688;-77
2023/05/29 00:48:52;;;;;;;6.17;2.90;;;14.90;99.90;;;;;;4196724;28;20310;-78
2023/05/29 00:50:56;;;;;;;4.83;2.93;;;14.90;99.90;;;;;;4198204;28;20233;-77
2023/05/29 00:52:59;;;;;;;3.77;2.60;;;14.80;99.90;;;;;;4196429;28;20237;-77
2023/05/29 00:55:02;;;;;;;3.87;2.70;;;14.80;99.90;;;;;;4198193;28;20701;-77
2023/05/29 00:57:06;;;;;;;5.17;2.90;;;14.80;99.90;;;;;;4198225;28;20216;-77
2023/05/29 00:59:08;;;;;;;4.57;2.57;;;14.70;99.90;;;;;;4196164;28;20209;-77
2023/05/29 01:01:11;;;;;;;4.73;3.00;;;14.70;99.90;;;;;;4191804;28;20697;-77
2023/05/29 01:03:16;;;;;;;6.30;3.20;;;14.70;99.90;;;;;;4192385;28;20261;-77
2023/05/29 01:05:19;;;;;;;7.10;2.97;;;14.70;99.90;;;;;;4195965;28;20247;-77
2023/05/29 01:07:22;;;;;;;6.23;2.90;;;14.60;99.90;;;;;;4197897;28;20223;-77
2023/05/29 01:09:24;;;;;;;5.33;3.03;;;14.60;99.90;;;;;;4197126;28;20226;-77
2023/05/29 01:11:37;;;;;;;4.93;2.83;;;14.60;99.90;;;;;;4197946;28;20220;-77
2023/05/29 01:13:42;;;;;;;5.33;2.83;;;14.60;99.90;;;;;;4192702;28;20650;-77
2023/05/29 01:15:50;;;;;;;5.90;3.00;;;14.50;99.90;;;;;;4194371;28;20255;-77
2023/05/29 01:18:08;;;;;;;5.37;3.10;;;14.50;99.90;;;;;;4197296;28;20311;-77
2023/05/29 01:20:19;;;;;;;6.03;3.27;;;14.40;99.90;;;;;;4195956;28;20607;-76
2023/05/29 01:22:36;;;;;;;4.67;2.77;;;14.40;99.90;;;;;;4192719;28;20238;-76
2023/05/29 01:24:47;;;;;;;4.63;2.70;;;14.40;99.90;;;;;;4196495;28;20225;-76
2023/05/29 01:26:55;;;;;;;4.30;2.47;;;14.30;99.90;;;;;;4197479;28;20242;-77
2023/05/29 01:29:01;;;;;;;7.57;2.53;;;14.30;99.90;;;;;;4194499;28;20262;-77
2023/05/29 01:31:04;;;;;;;4.30;2.70;;;14.20;99.90;;;;;;4195380;28;20228;-76
2023/05/29 01:33:07;;;;;;;5.13;2.60;;;14.20;99.90;;;;;;4196993;28;20210;-77
2023/05/29 01:35:10;;;;;;;3.37;2.40;;;14.20;99.90;;;;;;4196814;28;20210;-76
2023/05/29 01:37:12;;;;;;;3.23;2.17;;;14.20;99.90;;;;;;4195082;28;20577;-76
2023/05/29 01:39:15;;;;;;;5.27;2.60;;;14.10;99.90;;;;;;4196611;28;20216;-76
2023/05/29 01:41:17;;;;;;;4.77;2.50;;;14.10;99.90;;;;;;4194777;28;20227;-77
2023/05/29 01:43:21;;;;;;;4.70;2.57;;;14.10;99.90;;;;;;4196458;28;20964;-77
2023/05/29 01:45:23;;;;;;;5.57;2.47;;;14.00;99.90;;;;;;4196784;28;20668;-77
2023/05/29 01:47:25;;;;;;;4.97;2.83;;;14.00;99.90;;;;;;4195503;28;20234;-76
2023/05/29 01:49:29;;;;;;;5.20;2.33;;;14.00;99.90;;;;;;4194079;28;20824;-77
2023/05/29 01:51:31;;;;;;;4.50;2.77;;;14.00;99.90;;;;;;4194911;28;20603;-77
2023/05/29 01:53:33;;;;;;;3.97;2.43;;;13.90;99.90;;;;;;4196755;28;20231;-76
2023/05/29 01:55:35;;;;;;;5.07;2.73;;;13.90;99.90;;;;;;4196173;28;20218;-76
2023/05/29 01:57:38;;;;;;;6.90;2.33;;;13.90;99.90;;;;;;4194515;28;20292;-76
2023/05/29 01:59:42;;;;;;;4.10;2.60;;;13.80;99.90;;;;;;4189665;28;20657;-77
2023/05/29 02:01:44;;;;;;;5.53;2.77;;;13.80;99.90;;;;;;4196611;28;20318;-77
2023/05/29 02:03:46;;;;;;;4.97;2.70;;;13.80;99.90;;;;;;4196807;28;20904;-76
2023/05/29 02:05:48;;;;;;;5.40;2.50;;;13.80;99.90;;;;;;4195515;28;20307;-77
2023/05/29 02:07:50;;;;;;;4.13;2.57;;;13.80;99.90;;;;;;4193364;28;20210;-76
2023/05/29 02:09:52;;;;;;;5.93;2.67;;;13.70;99.90;;;;;;4196438;28;20252;-76
2023/05/29 02:11:54;;;;;;;5.27;2.73;;;13.70;99.90;;;;;;4196319;28;20546;-77
2023/05/29 02:13:56;;;;;;;6.73;2.80;;;13.70;99.90;;;;;;4195709;28;20220;-77
2023/05/29 02:15:59;;;;;;;4.73;2.77;;;13.60;99.90;;;;;;4204006;28;20257;-76
2023/05/29 02:18:01;;;;;;;4.93;2.57;;;13.60;99.90;;;;;;4196896;28;20392;-77
2023/05/29 02:20:06;;;;;;;4.83;2.87;;;13.60;99.90;;;;;;4195827;28;20261;-77
2023/05/29 02:22:08;;;;;;;5.37;2.60;;;13.50;99.90;;;;;;4192035;28;20688;-76
2023/05/29 02:24:10;;;;;;;4.10;2.40;;;13.50;99.90;;;;;;4194615;28;20257;-76
2023/05/29 02:26:13;;;;;;;5.47;2.80;;;13.50;99.90;;;;;;4194405;28;20302;-76
2023/05/29 02:28:15;;;;;;;5.97;2.63;;;13.50;99.90;;;;;;4195350;28;20226;-77
2023/05/29 02:30:17;;;;;;;4.57;2.90;;;13.40;99.90;;;;;;4195180;28;20318;-76
2023/05/29 02:32:22;;;;;;;3.70;2.20;;;13.40;99.90;;;;;;4196354;28;20204;-76
2023/05/29 02:34:26;;;;;;;4.43;2.80;;;13.40;99.90;;;;;;4194957;28;20206;-76
2023/05/29 02:36:28;;;;;;;4.30;2.70;;;13.30;99.90;;;;;;4193836;28;20209;-76
2023/05/29 02:38:30;;;;;;;4.60;2.90;;;13.30;99.90;;;;;;4194016;28;20202;-76
2023/05/29 02:40:32;;;;;;;5.67;2.80;;;13.30;99.90;;;;;;4193303;28;20739;-77
2023/05/29 02:42:34;;;;;;;4.37;2.50;;;13.30;99.90;;;;;;4193516;28;20726;-76
2023/05/29 02:44:36;;;;;;;3.80;2.60;;;13.10;99.90;;;;;;4192630;28;20237;-76
2023/05/29 02:46:38;;;;;;;5.83;2.40;;;13.20;99.90;;;;;;4194537;28;20194;-76
2023/05/29 02:48:43;;;;;;;5.90;2.80;;;13.20;99.90;;;;;;4194283;28;20202;-76
2023/05/29 02:50:45;;;;;;;4.27;2.73;;;13.10;99.90;;;;;;4194810;28;20230;-76
2023/05/29 02:52:47;;;;;;;4.87;2.80;;;13.10;99.90;;;;;;4194587;28;20256;-76
2023/05/29 02:54:49;;;;;;;6.03;2.97;;;13.10;99.90;;;;;;4194537;28;20225;-76
2023/05/29 02:56:51;;;;;;;5.00;2.63;;;13.00;99.90;;;;;;4195536;28;20300;-76
2023/05/29 02:58:53;;;;;;;3.73;2.67;;;13.00;99.90;;;;;;4194079;28;20709;-76
2023/05/29 03:00:55;;;;;;;4.60;2.70;;;13.00;99.90;;;;;;4195764;28;20244;-76
2023/05/29 03:03:00;;;;;;;4.97;2.80;;;13.00;99.90;;;;;;4193325;28;20320;-76
2023/05/29 03:05:04;;;;;;;6.23;3.30;;;13.00;99.90;;;;;;4194817;28;20201;-76
2023/05/29 03:07:06;;;;;;;4.00;2.50;;;12.90;99.90;;;;;;4195916;28;20206;-76
2023/05/29 03:09:08;;;;;;;4.40;2.57;;;12.90;99.90;;;;;;4195532;28;20274;-76
2023/05/29 03:11:10;;;;;;;4.97;2.57;;;12.90;99.90;;;;;;4195458;28;20234;-76
2023/05/29 03:13:12;;;;;;;5.13;2.70;;;12.90;99.90;;;;;;4195783;28;20198;-76
2023/05/29 03:15:15;;;;;;;4.60;2.73;;;12.80;99.90;;;;;;4194046;28;20305;-76
2023/05/29 03:17:17;;;;;;;4.30;2.77;;;12.80;99.90;;;;;;4194882;28;20209;-76
2023/05/29 03:19:19;;;;;;;5.17;3.00;;;12.80;99.90;;;;;;4193923;28;20238;-76
2023/05/29 03:21:23;;;;;;;5.13;3.00;;;12.80;99.90;;;;;;4191950;28;20222;-76
2023/05/29 03:23:25;;;;;;;6.10;2.70;;;12.80;99.90;;;;;;4194379;28;20703;-77
2023/05/29 03:25:27;;;;;;;4.47;2.63;;;12.70;99.90;;;;;;4195038;28;20307;-76
2023/05/29 03:27:29;;;;;;;7.63;3.10;;;12.60;99.90;;;;;;4195810;28;20217;-76
2023/05/29 03:29:32;;;;;;;5.20;2.90;;;12.60;99.90;;;;;;4194409;28;20239;-76
2023/05/29 03:31:43;;;;;;;5.43;3.03;;;12.70;99.90;;;;;;4192689;28;20699;-76
2023/05/29 03:33:45;;;;;;;6.47;2.97;;;12.50;99.90;;;;;;4193853;28;20300;-76
2023/05/29 03:35:53;;;;;;;4.10;2.77;;;12.50;99.90;;;;;;4196692;28;20220;-76
2023/05/29 03:37:57;;;;;;;5.60;2.90;;;12.40;99.90;;;;;;4210675;28;20216;-77
2023/05/29 03:39:59;;;;;;;7.00;3.60;;;12.40;99.90;;;;;;4207853;28;20207;-77
2023/05/29 03:42:02;;;;;;;5.83;3.13;;;12.40;99.90;;;;;;4211661;28;20196;-76
2023/05/29 03:44:05;;;;;;;6.63;3.10;;;12.30;99.90;;;;;;4208091;28;20244;-76
2023/05/29 03:46:07;;;;;;;6.90;3.13;;;12.30;99.90;;;;;;4199317;28;20209;-76
2023/05/29 03:48:08;;;;;;;6.70;3.10;;;12.30;99.90;;;;;;4197736;28;20209;-76
2023/05/29 03:50:11;;;;;;;5.30;3.20;;;12.30;99.90;;;;;;4195366;28;20284;-76
2023/05/29 03:52:13;;;;;;;4.40;2.87;;;12.20;99.90;;;;;;4199253;28;20274;-76
2023/05/29 03:54:16;;;;;;;5.93;3.10;;;12.20;99.90;;;;;;4197884;28;20220;-76
2023/05/29 03:56:18;;;;;;;6.17;3.10;;;12.20;99.90;;;;;;4196390;28;21062;-76
2023/05/29 03:58:20;;;;;;;6.33;2.93;;;12.20;99.90;;;;;;4196222;28;20209;-76
2023/05/29 04:00:22;;;;;;;6.93;3.03;;;12.10;99.90;;;;;;4191940;28;20284;-76
2023/05/29 04:02:24;;;;;;;6.37;2.93;;;12.10;99.90;;;;;;4194799;28;20272;-76
2023/05/29 04:04:26;;;;;;;8.10;3.17;;;12.10;99.90;;;;;;4196610;28;20300;-76
2023/05/29 04:06:28;;;;;;;7.43;3.07;;;12.10;99.90;;;;;;4195822;28;20201;-76
2023/05/29 04:08:30;;;;;;;5.33;3.00;;;12.00;99.90;;;;;;4194024;28;20213;-76
2023/05/29 04:10:34;;;;;;;5.87;3.30;;;12.00;99.90;;;;;;4196002;28;20363;-76
2023/05/29 04:12:36;;;;;;;4.60;2.90;;;12.00;99.90;;;;;;4195802;28;20301;-76
2023/05/29 04:14:41;;;;;;;8.77;3.63;;;12.00;99.90;;;;;;4195481;28;20232;-76
2023/05/29 04:16:43;;;;;;;5.93;3.20;;;12.00;99.90;;;;;;4196728;28;20220;-76
2023/05/29 04:18:48;;;;;;;7.30;3.23;;;12.00;99.90;;;;;;4195619;28;20252;-76
2023/05/29 04:20:50;;;;;;;8.27;3.03;;;12.00;99.90;;;;;;4195637;28;20271;-75
2023/05/29 04:22:52;;;;;;;6.10;2.73;;;12.00;99.90;;;;;;4198092;28;20224;-76
2023/05/29 04:24:54;;;;;;;6.77;3.37;;;12.00;99.90;;;;;;4198070;28;20206;-76
2023/05/29 04:27:00;;;;;;;5.03;2.90;;;12.00;99.90;;;;;;4195198;28;20274;-77
2023/05/29 04:29:03;;;;;;;5.97;3.37;;;12.00;99.90;;;;;;4204828;28;20239;-77
2023/05/29 04:31:06;;;;;;;4.20;2.70;;;11.90;99.90;;;;;;4207897;28;20226;-76
2023/05/29 04:33:09;;;;;;;6.97;3.90;;;12.00;99.90;;;;;;4216691;28;20205;-76
2023/05/29 04:35:14;;;;;;;9.80;3.03;;;11.90;99.90;;;;;;4210518;28;20208;-77
2023/05/29 04:37:17;;;;;;;6.67;3.30;;;11.90;99.90;;;;;;4214018;28;20214;-76
2023/05/29 04:39:22;;;;;;;6.73;3.20;;;12.00;99.90;;;;;;4215514;28;20210;-76
2023/05/29 04:41:29;;;;;;;7.30;2.97;;;12.00;99.90;;;;;;4213402;28;20226;-76
2023/05/29 04:43:36;;;;;;;6.67;3.40;;;12.00;99.90;;;;;;4196210;28;20240;-76
2023/05/29 04:45:38;;;;;;;6.20;3.27;;;12.00;99.90;;;;;;4199855;28;20607;-76
2023/05/29 04:47:43;;;;;;;6.70;3.30;;;12.00;99.90;;;;;;4194991;28;20305;-76
2023/05/29 04:49:48;;;;;;;6.00;3.20;;;12.00;99.90;;;;;;4194545;28;20219;-76
2023/05/29 04:51:53;;;;;;;6.33;3.20;;;12.00;99.90;;;;;;4192879;28;20235;-76
2023/05/29 04:53:55;;;;;;;5.87;4.00;;;12.10;99.90;;;;;;4197889;28;20292;-76
2023/05/29 04:55:57;;;;;;;6.40;3.40;;;12.10;99.90;;;;;;4196523;28;20581;-76
2023/05/29 04:58:00;;;;;;;5.73;3.37;;;12.10;99.90;;;;;;4197061;28;20213;-76
2023/05/29 05:00:08;;;;;;;7.93;3.10;;;12.10;99.90;;;;;;4191374;28;20214;-77
2023/05/29 05:02:10;;;;;;;5.53;3.13;;;12.10;99.90;;;;;;4194263;28;20223;-76
2023/05/29 05:04:12;;;;;;;7.60;3.57;;;12.10;99.90;;;;;;4197623;28;20324;-76
2023/05/29 05:06:16;;;;;;;6.13;3.23;;;12.10;99.90;;;;;;4197548;28;20282;-76
2023/05/29 05:08:18;;;;;;;6.33;3.40;;;12.10;99.90;;;;;;4193783;28;20209;-76
2023/05/29 05:10:20;;;;;;;7.73;3.60;;;12.10;99.90;;;;;;4197562;28;20719;-76
2023/05/29 05:12:22;;;;;;;5.30;3.17;;;12.10;99.90;;;;;;4196930;28;20597;-77
2023/05/29 05:14:24;;;;;;;6.63;3.43;;;12.10;99.90;;;;;;4197028;28;20763;-76
2023/05/29 05:16:28;;;;;;;6.13;3.20;;;12.10;99.90;;;;;;4197818;28;20265;-76
2023/05/29 05:18:30;;;;;;;7.53;3.40;;;12.10;99.90;;;;;;4194881;28;20247;-76
2023/05/29 05:20:32;;;;;;;7.30;3.50;;;12.20;99.90;;;;;;4196559;28;20702;-76
2023/05/29 05:22:34;;;;;;;7.57;3.43;;;12.20;99.90;;;;;;4197281;28;20213;-76
2023/05/29 05:24:36;;;;;;;6.30;3.20;;;12.20;99.90;;;;;;4193841;28;20248;-77
2023/05/29 05:26:38;;;;;;;7.40;3.57;;;12.20;99.90;;;;;;4197154;28;20247;-76
2023/05/29 05:28:39;;;;;;;6.73;3.30;;;12.20;99.90;;;;;;4194030;28;20845;-76
2023/05/29 05:30:41;;;;;;;7.03;3.50;;;12.20;99.90;;;;;;4193843;28;20290;-76
2023/05/29 05:32:45;;;;;;;8.57;3.43;;;12.30;99.90;;;;;;4193128;28;20224;-76
2023/05/29 05:34:46;;;;;;;7.07;3.53;;;12.30;99.90;;;;;;4193628;28;20210;-76
2023/05/29 05:36:49;;;;;;;5.50;3.43;;;12.30;99.90;;;;;;4195644;28;20209;-76
2023/05/29 05:38:51;;;;;;;7.37;3.90;;;12.30;99.90;;;;;;4189082;28;20315;-76
2023/05/29 05:40:53;;;;;;;7.37;3.37;;;12.30;99.90;;;;;;4193040;28;20233;-76
2023/05/29 05:42:55;;;;;;;6.93;3.47;;;12.30;99.90;;;;;;4196780;28;20209;-76
2023/05/29 05:44:57;;;;;;;6.60;3.60;;;12.30;99.90;;;;;;4195282;28;20238;-77
2023/05/29 05:46:59;;;;;;;8.03;3.77;;;12.40;99.90;;;;;;4196392;28;20671;-76
2023/05/29 05:49:02;;;;;;;11.13;3.87;;;12.40;99.90;;;;;;4196283;28;20583;-77
2023/05/29 05:51:05;;;;;;;8.37;3.60;;;12.40;99.90;;;;;;4196757;28;20232;-76
2023/05/29 05:53:06;;;;;;;6.87;3.33;;;12.40;99.90;;;;;;4196572;28;20228;-77
2023/05/29 05:55:09;;;;;;;7.90;4.03;;;12.50;99.90;;;;;;4194962;28;20299;-77
2023/05/29 05:57:12;;;;;;;5.70;3.37;;;12.50;99.90;;;;;;4195452;28;20230;-76
2023/05/29 05:59:14;;;;;;;7.70;3.70;;;12.50;99.90;;;;;;4195681;28;20218;-76
2023/05/29 06:01:15;;;;;;;4.97;3.03;;;12.60;99.90;;;;;;4195516;28;20264;-77
2023/05/29 06:03:17;;;;;;;7.20;3.27;;;12.60;99.90;;;;;;4196098;28;20255;-76
2023/05/29 06:05:21;;;;;;;7.57;3.80;;;12.60;99.90;;;;;;4194657;28;20213;-77
2023/05/29 06:07:23;;;;;;;9.07;3.53;;;12.70;99.90;;;;;;4195514;28;20244;-76
2023/05/29 06:09:25;;;;;;;9.10;3.83;;;12.70;99.90;;;;;;4196556;28;20300;-77
2023/05/29 06:11:27;;;;;;;6.93;3.40;;;12.70;99.90;;;;;;4195755;28;20225;-77
2023/05/29 06:13:29;;;;;;;8.57;3.73;;;12.80;99.90;;;;;;4196863;28;20536;-76
2023/05/29 06:15:31;;;;;;;7.00;3.50;;;12.80;99.90;;;;;;4192197;28;20571;-77
2023/05/29 06:17:33;;;;;;;6.83;3.20;;;12.90;99.90;;;;;;4195677;28;20218;-77
2023/05/29 06:19:38;;;;;;;7.33;3.80;;;12.90;99.90;;;;;;4195485;28;20642;-77
2023/05/29 06:21:41;;;;;;;9.67;3.50;;;12.90;99.90;;;;;;4194988;28;20226;-77
2023/05/29 06:23:43;;;;;;;6.30;3.10;;;13.00;99.90;;;;;;4195260;28;20230;-77
2023/05/29 06:25:45;;;;;;;7.90;3.27;;;13.00;99.90;;;;;;4195557;28;20308;-77
2023/05/29 06:27:47;;;;;;;8.53;3.60;;;13.10;99.90;;;;;;4193199;28;20206;-77
2023/05/29 06:29:49;;;;;;;9.00;3.47;;;13.10;99.90;;;;;;4196434;28;20312;-77
2023/05/29 06:31:51;;;;;;;6.77;3.40;;;13.20;99.90;;;;;;4193919;28;20229;-77
2023/05/29 06:33:53;;;;;;;7.03;3.73;;;13.20;99.90;;;;;;4196199;28;20228;-76
2023/05/29 06:35:54;;;;;;;8.50;3.50;;;13.30;99.90;;;;;;4192664;28;20297;-77
2023/05/29 06:37:58;;;;;;;10.33;4.00;;;13.40;99.90;;;;;;4196163;28;20218;-76
2023/05/29 06:40:00;;;;;;;8.10;3.93;;;13.40;99.90;;;;;;4195449;28;20644;-77
2023/05/29 06:42:02;;;;;;;9.03;3.77;;;13.40;99.90;;;;;;4193430;28;20653;-77
2023/05/29 06:44:04;;;;;;;12.27;4.07;;;13.40;99.90;;;;;;4194601;28;20226;-77
2023/05/29 06:46:06;;;;;;;7.33;3.53;;;13.50;99.90;;;;;;4190296;28;20272;-77
2023/05/29 06:48:08;;;;;;;10.27;3.90;;;13.60;99.90;;;;;;4194228;28;20214;-76
2023/05/29 06:50:10;;;;;;;7.40;3.67;;;13.70;99.90;;;;;;4195031;28;20293;-77
2023/05/29 06:52:12;;;;;;;8.50;4.27;;;13.70;99.90;;;;;;4196535;28;20218;-77
2023/05/29 06:54:15;;;;;;;8.80;4.00;;;13.80;99.90;;;;;;4195736;28;20206;-77
2023/05/29 06:56:17;;;;;;;8.63;3.73;;;13.90;99.90;;;;;;4207041;28;20211;-77
2023/05/29 06:58:21;;;;;;;8.10;3.77;;;13.90;99.90;;;;;;4204739;28;20194;-77
2023/05/29 07:00:23;;;;;;;9.03;4.20;;;13.90;99.90;;;;;;4215978;28;20222;-76
2023/05/29 07:02:28;;;;;;;6.23;3.73;;;14.10;99.90;;;;;;4218138;28;20229;-76
2023/05/29 07:04:32;;;;;;;8.37;3.67;;;14.00;99.90;;;;;;4216758;28;20226;-77
2023/05/29 07:06:35;;;;;;;10.47;3.90;;;14.10;99.90;;;;;;4216621;28;20193;-77
2023/05/29 07:08:37;;;;;;;8.57;3.77;;;14.20;99.90;;;;;;4203391;28;20650;-77
2023/05/29 07:10:40;;;;;;;9.20;3.73;;;14.20;99.90;;;;;;4195458;28;20252;-77
2023/05/29 07:12:42;;;;;;;11.27;3.80;;;14.30;99.90;;;;;;4196753;28;20239;-77
2023/05/29 07:14:46;;;;;;;7.17;3.93;;;14.30;99.90;;;;;;4192733;28;20635;-77
2023/05/29 07:16:48;;;;;;;8.70;3.93;;;14.40;99.90;;;;;;4194321;28;20215;-77
2023/05/29 07:18:50;;;;;;;5.63;3.37;;;14.50;99.90;;;;;;4191375;28;20215;-77
2023/05/29 07:20:52;;;;;;;7.07;3.47;;;14.50;99.90;;;;;;4191526;28;20644;-77
2023/05/29 07:22:54;;;;;;;7.43;3.67;;;14.60;99.90;;;;;;4195780;28;20250;-77
2023/05/29 07:24:56;;;;;;;11.60;3.53;;;14.60;99.90;;;;;;4193631;28;20228;-77
2023/05/29 07:27:00;;;;;;;8.23;3.70;;;14.70;99.90;;;;;;4193991;28;20217;-77
2023/05/29 07:29:01;;;;;;;8.67;3.97;;;14.80;99.90;;;;;;4195885;28;20213;-77
2023/05/29 07:31:03;;;;;;;5.33;3.33;;;14.80;99.90;;;;;;4195579;28;20263;-77
2023/05/29 07:33:06;;;;;;;6.77;3.47;;;14.90;99.90;;;;;;4195964;28;20303;-76
2023/05/29 07:35:08;;;;;;;9.60;4.10;;;14.90;99.90;;;;;;4193230;28;20272;-76
2023/05/29 07:37:10;;;;;;;6.23;3.47;;;15.00;99.90;;;;;;4188511;28;20271;-77
2023/05/29 07:39:15;;;;;;;7.80;3.67;;;15.00;99.90;;;;;;4197325;28;20679;-76
2023/05/29 07:41:17;;;;;;;8.73;3.80;;;15.10;99.90;;;;;;4198846;28;20257;-77
2023/05/29 07:43:21;;;;;;;7.50;3.53;;;15.10;99.90;;;;;;4193823;28;20854;-77
2023/05/29 07:45:23;;;;;;;6.67;3.53;;;15.20;99.90;;;;;;4196841;28;20283;-78
2023/05/29 07:47:25;;;;;;;7.43;3.67;;;15.30;99.90;;;;;;4194918;28;20235;-77
2023/05/29 07:49:27;;;;;;;5.33;2.80;;;15.30;99.90;;;;;;4199118;28;20252;-77
2023/05/29 07:51:30;;;;;;;6.30;2.93;;;15.40;99.90;;;;;;4194286;28;20240;-75
2023/05/29 07:53:32;;;;;;;6.57;3.17;;;15.40;99.90;;;;;;4192560;28;20223;-75
2023/05/29 07:55:35;;;;;;;7.20;2.60;;;15.50;99.90;;;;;;4191608;28;20584;-76
2023/05/29 07:57:39;;;;;;;7.50;3.13;;;15.60;99.90;;;;;;4194330;28;20213;-75
2023/05/29 07:59:42;;;;;;;5.90;2.87;;;15.70;99.90;;;;;;4196179;28;20232;-76
2023/05/29 08:01:45;;;;;;;6.07;2.80;;;15.80;99.90;;;;;;4198342;28;20237;-76
2023/05/29 08:03:47;;;;;;;9.17;3.43;;;15.90;99.90;;;;;;4198622;28;20210;-77
2023/05/29 08:05:50;;;;;;;7.40;3.77;;;15.90;99.90;;;;;;4197399;28;20217;-77
2023/05/29 08:07:52;;;;;;;9.27;4.13;;;16.00;99.90;;;;;;4198155;28;20275;-77
2023/05/29 08:09:54;;;;;;;8.97;3.60;;;16.10;99.90;;;;;;4197876;28;20656;-77
2023/05/29 08:11:56;;;;;;;6.07;3.00;;;16.20;99.90;;;;;;4198373;28;20240;-77
2023/05/29 08:13:59;;;;;;;5.80;3.30;;;16.30;99.90;;;;;;4201175;28;20197;-77
2023/05/29 08:16:02;;;;;;;5.90;2.70;;;16.30;99.90;;;;;;4194145;28;20574;-78
2023/05/29 08:18:04;;;;;;;7.20;2.63;;;16.40;99.90;;;;;;4197404;28;20214;-77
2023/05/29 08:20:09;;;;;;;4.50;2.50;;;16.40;99.90;;;;;;4195466;28;20822;-77
2023/05/29 08:22:16;;;;;;;6.20;2.57;;;16.50;99.90;;;;;;4197135;28;20235;-77
2023/05/29 08:24:19;;;;;;;5.63;2.70;;;16.60;99.90;;;;;;4195481;28;20247;-78
2023/05/29 08:26:21;;;;;;;4.53;2.43;;;16.70;99.90;;;;;;4194860;28;20210;-78
2023/05/29 08:28:23;;;;;;;6.70;2.93;;;16.70;99.90;;;;;;4195066;28;20221;-77
2023/05/29 08:30:25;;;;;;;5.37;2.60;;;16.90;99.90;;;;;;4193734;28;20230;-79
2023/05/29 08:32:29;;;;;;;4.30;2.50;;;16.90;99.90;;;;;;4197461;28;20285;-80
2023/05/29 08:34:31;;;;;;;5.37;2.40;;;17.00;99.90;;;;;;4197308;28;20617;-78
2023/05/29 08:36:33;;;;;;;10.20;3.50;;;17.00;99.90;;;;;;4198309;28;20210;-79
2023/05/29 08:38:36;;;;;;;7.03;3.33;;;17.20;99.90;;;;;;4198340;28;20586;-76
2023/05/29 08:40:38;;;;;;;5.97;2.63;;;17.30;99.90;;;;;;4197315;28;20605;-76
2023/05/29 08:42:47;;;;;;;3.87;2.30;;;17.40;99.90;;;;;;4195305;28;20206;-75
2023/05/29 08:44:50;;;;;;;4.90;2.60;;;17.50;99.90;;;;;;4195871;28;20291;-75
2023/05/29 08:46:57;;;;;;;4.27;2.60;;;17.60;99.90;;;;;;4196212;28;20213;-76
2023/05/29 08:49:02;;;;;;;6.17;2.47;;;17.70;99.90;;;;;;4196276;28;20207;-76
2023/05/29 08:51:06;;;;;;;7.37;2.40;;;17.90;99.90;;;;;;4195035;28;20290;-76
2023/05/29 08:53:08;;;;;;;6.03;2.53;;;18.00;99.90;;;;;;4195366;28;20867;-75
2023/05/29 08:55:10;;;;;;;7.90;2.77;;;18.10;99.90;;;;;;4196423;28;20754;-77
2023/05/29 08:57:13;;;;;;;3.83;2.30;;;18.20;99.90;;;;;;4196284;28;20215;-76
2023/05/29 08:59:17;;;;;;;4.57;2.73;;;18.40;99.90;;;;;;4196040;28;20207;-76
2023/05/29 09:01:20;;;;;;;4.63;2.50;;;18.60;99.90;;;;;;4195493;28;20239;-75
2023/05/29 09:03:22;;;;;;;6.00;2.93;;;18.80;99.90;;;;;;4195056;28;20235;-76
2023/05/29 09:05:27;;;;;;;5.23;2.53;;;19.00;99.90;;;;;;4194415;28;20213;-77
2023/05/29 09:07:29;;;;;;;5.67;2.40;;;19.20;99.90;;;;;;4193091;28;20211;-76
2023/05/29 09:09:32;;;;;;;5.87;2.37;;;19.30;99.90;;;;;;4193827;28;20729;-77
2023/05/29 09:11:34;;;;;;;4.63;2.23;;;19.40;99.90;;;;;;4194076;28;20232;-76
2023/05/29 09:13:39;;;;;;;4.23;2.50;;;19.60;99.90;;;;;;4194504;28;20219;-76
2023/05/29 09:15:42;;;;;;;3.90;2.10;;;19.70;99.90;;;;;;4195838;28;20205;-76
2023/05/29 09:17:44;;;;;;;4.60;2.60;;;19.80;99.90;;;;;;4196964;28;20209;-76
2023/05/29 09:19:48;;;;;;;3.57;2.53;;;19.90;99.90;;;;;;4202167;28;20372;-76
2023/05/29 09:21:52;;;;;;;5.30;2.47;;;20.00;99.90;;;;;;4202074;28;20226;-76
2023/05/29 09:23:54;;;;;;;6.20;2.23;;;20.20;98.40;;;;;;4199470;28;20237;-78
2023/05/29 09:25:56;;;;;;;5.00;2.30;;;20.30;98.70;;;;;;4205518;28;20324;-77
2023/05/29 09:28:00;;;;;;;3.57;2.40;;;20.40;96.70;;;;;;4200720;28;20206;-78
2023/05/29 09:30:02;;;;;;;5.37;2.60;;;20.50;96.70;;;;;;4201659;28;20333;-77
2023/05/29 09:32:09;;;;;;;6.70;2.93;;;20.60;95.60;;;;;;4204149;28;20933;-77
2023/05/29 09:34:11;;;;;;;5.80;3.37;;;20.70;94.00;;;;;;4199848;28;20214;-78
2023/05/29 09:36:21;;;;;;;8.50;2.97;;;20.80;94.10;;;;;;4197413;28;21783;-77
2023/05/29 09:38:25;;;;;;;4.60;2.53;;;20.90;92.50;;;;;;4195235;28;20619;-80
2023/05/29 09:40:27;;;;;;;4.33;2.40;;;20.90;92.60;;;;;;4195639;28;20593;-76
2023/05/29 09:42:29;;;;;;;5.00;2.50;;;21.00;91.70;;;;;;4196724;28;20304;-79
2023/05/29 09:44:33;;;;;;;4.50;2.67;;;21.10;92.50;;;;;;4199420;28;20313;-82
2023/05/29 09:46:36;;;;;;;5.13;2.70;;;21.20;83.90;;;;;;4197348;28;20306;-79
2023/05/29 09:48:38;;;;;;;3.50;2.50;;;21.30;76.40;;;;;;4195875;28;20658;-78
2023/05/29 09:50:42;;;;;;;4.77;2.60;;;21.40;82.60;;;;;;4196552;28;20345;-75
2023/05/29 09:52:44;;;;;;;8.53;2.60;;;21.40;77.90;;;;;;4196168;28;20594;-79
2023/05/29 09:54:48;;;;;;;7.50;2.40;;;21.50;77.70;;;;;;4196003;28;20214;-76
2023/05/29 09:56:52;;;;;;;10.30;2.60;;;21.50;76.20;;;;;;4194151;28;20231;-75
2023/05/29 09:58:57;;;;;;;6.27;2.57;;;21.60;74.00;;;;;;4194922;28;20285;-76
2023/05/29 10:00:59;;;;;;;5.47;2.50;;;21.60;72.70;;;;;;4195920;28;20234;-76
2023/05/29 10:03:01;;;;;;;4.07;2.50;;;21.70;72.70;;;;;;4195763;28;20230;-76
2023/05/29 10:05:03;;;;;;;5.67;2.60;;;21.80;71.50;;;;;;4195065;28;20238;-75
2023/05/29 10:07:09;;;;;;;3.83;2.47;;;21.90;70.60;;;;;;4194327;28;20745;-77
2023/05/29 10:09:15;;;;;;;5.13;2.33;;;22.00;68.40;;;;;;4188250;28;20223;-77
2023/05/29 10:11:24;;;;;;;4.93;2.10;;;22.20;64.80;;;;;;4195937;28;20247;-80
2023/05/29 10:13:31;;;;;;;6.27;2.80;;;22.30;64.50;;;;;;4196011;28;20302;-77
2023/05/29 10:15:34;;;;;;;4.00;2.50;;;22.50;67.40;;;;;;4193283;28;20848;-80
2023/05/29 10:17:38;;;;;;;4.33;2.33;;;22.60;61.00;;;;;;4198398;28;20307;-81
2023/05/29 10:19:42;;;;;;;3.93;2.30;;;22.70;59.50;;;;;;4198039;28;20213;-78
2023/05/29 10:21:45;;;;;;;7.87;2.80;;;22.80;57.40;;;;;;4196301;28;20234;-81
2023/05/29 10:23:49;;;;;;;12.60;3.00;;;22.80;55.60;;;;;;4195461;28;20211;-78
2023/05/29 10:25:53;;;;;;;96.80;5.77;;;22.80;53.90;;;;;;4195649;28;20279;-73
2023/05/29 10:27:58;;;;;;;12.40;3.17;;;22.90;53.50;;;;;;4195046;28;20217;-73
2023/05/29 10:30:08;;;;;;;7.60;2.80;;;23.00;52.00;;;;;;4194549;28;20209;-75
2023/05/29 10:32:22;;;;;;;7.97;2.60;;;23.20;52.20;;;;;;4193612;28;20276;-75
2023/05/29 10:34:32;;;;;;;4.83;2.50;;;23.30;52.60;;;;;;4194207;28;20748;-74
2023/05/29 10:36:38;;;;;;;4.60;2.40;;;23.40;51.40;;;;;;4194745;28;20205;-76
2023/05/29 10:38:42;;;;;;;3.20;2.10;;;23.60;49.30;;;;;;4191418;28;20194;-74
2023/05/29 10:40:45;;;;;;;3.90;2.10;;;23.70;48.70;;;;;;4193865;28;20711;-75